Muddy Creek, North Carolina
Current Conditions -  °F | °C
As of 8:54 AM on Thursday 18 Dec 2014 (Local Time) from KINT Reporting Station
Broken Clouds Broken Clouds  
Wind Chill: 34°   Ceiling: 12000
Heat Index: 39°   Visibility: 10mi
Dew Point: 23°   Wind: 7mph
Humidity: 53%   Direction: 20°NNE
Pressure: 30.18"   Gusts: NA
Location:  36.0595°N, 80.3192°W
Report Text: KINT 181354Z 02006KT 10SM BKN120 04/M05 A3018 RMK AO2 SLP221 T00391050
Loading
Personal Weather Stations






























Interactive Weather Map New forecast layout! Learn more

10-Day Weather Forecast

Advertisements
Track Severe Weather on mobile